createdAt,value
2018-02-14T00:01:28.700Z,-0.40
2018-02-14T00:03:54.692Z,-0.40
2018-02-14T00:06:20.651Z,-0.40
2018-02-14T00:08:46.730Z,-0.40
2018-02-14T00:11:12.684Z,-0.40
2018-02-14T00:13:39.355Z,-0.60
2018-02-14T00:16:05.347Z,-0.60
2018-02-14T00:18:32.107Z,-0.60
2018-02-14T00:20:58.095Z,-0.60
2018-02-14T00:23:24.819Z,-0.60
2018-02-14T00:25:50.930Z,-0.60
2018-02-14T00:28:16.871Z,-0.70
2018-02-14T00:30:42.851Z,-0.80
2018-02-14T00:33:08.784Z,-0.80
2018-02-14T00:35:34.751Z,-0.90
2018-02-14T00:38:01.587Z,-0.90
2018-02-14T00:40:27.683Z,-0.90
2018-02-14T00:42:53.663Z,-1.00
2018-02-14T00:45:19.624Z,-1.00
2018-02-14T00:47:45.601Z,-1.00
2018-02-14T00:50:12.277Z,-1.00
2018-02-14T00:52:38.260Z,-1.10
2018-02-14T00:55:04.985Z,-0.90
2018-02-14T00:57:31.833Z,-0.90
2018-02-14T00:59:58.544Z,-0.90
2018-02-14T01:02:24.501Z,-1.00
2018-02-14T01:04:51.220Z,-1.00
2018-02-14T01:07:17.180Z,-1.10
2018-02-14T01:09:43.173Z,-1.10
2018-02-14T01:12:09.880Z,-1.20
2018-02-14T01:14:35.820Z,-1.20
2018-02-14T01:17:01.914Z,-1.30
2018-02-14T01:19:27.847Z,-1.30
2018-02-14T01:21:53.819Z,-1.30
2018-02-14T01:24:19.757Z,-1.40
2018-02-14T01:26:45.720Z,-1.30
2018-02-14T01:29:11.658Z,-1.30
2018-02-14T01:31:37.593Z,-1.40
2018-02-14T01:34:04.415Z,-1.50
2018-02-14T01:36:30.357Z,-1.50
2018-02-14T01:38:57.186Z,-1.50
2018-02-14T01:41:23.113Z,-1.50
2018-02-14T01:43:49.836Z,-1.60
2018-02-14T01:46:15.783Z,-1.60
2018-02-14T01:48:42.601Z,-1.50
2018-02-14T01:51:08.544Z,-1.50
2018-02-14T01:53:35.274Z,-1.60
2018-02-14T01:56:01.212Z,-1.50
2018-02-14T01:58:27.883Z,-1.60
2018-02-14T02:00:53.847Z,-1.60
2018-02-14T02:03:19.778Z,-1.60
2018-02-14T02:05:45.876Z,-1.60
2018-02-14T02:08:11.822Z,-1.60
2018-02-14T02:10:37.759Z,-1.60
2018-02-14T02:13:04.467Z,-1.70
2018-02-14T02:15:30.395Z,-1.70
2018-02-14T02:17:56.371Z,-1.80
2018-02-14T02:20:22.313Z,-1.90
2018-02-14T02:22:48.259Z,-1.80
2018-02-14T02:25:14.360Z,-1.90
2018-02-14T02:27:40.327Z,-1.90
2018-02-14T02:30:07.037Z,-2.10
2018-02-14T02:32:32.963Z,-2.10
2018-02-14T02:34:58.959Z,-2.20
2018-02-14T02:37:25.048Z,-2.20
2018-02-14T02:39:50.984Z,-2.20
2018-02-14T02:42:17.044Z,-2.20
2018-02-14T02:44:43.015Z,-2.20
2018-02-14T02:47:09.682Z,-2.20
2018-02-14T02:49:35.625Z,-2.20
2018-02-14T02:52:01.585Z,-2.10
2018-02-14T02:54:28.271Z,-2.20
2018-02-14T02:56:54.344Z,-2.10
2018-02-14T02:59:21.028Z,-2.30
2018-02-14T03:01:46.995Z,-2.30
2018-02-14T03:04:13.703Z,-2.30
2018-02-14T03:06:39.651Z,-2.30
2018-02-14T03:09:05.614Z,-2.20
2018-02-14T03:11:31.552Z,-2.20
2018-02-14T03:13:57.636Z,-2.20
2018-02-14T03:16:23.597Z,-2.30
2018-02-14T03:18:49.563Z,-2.30
2018-02-14T03:21:15.490Z,-2.40
2018-02-14T03:23:42.180Z,-2.30
2018-02-14T03:26:08.155Z,-2.30
2018-02-14T03:28:34.093Z,-2.30
2018-02-14T03:31:00.313Z,-2.30
2018-02-14T03:33:27.011Z,-2.40
2018-02-14T03:35:52.979Z,-2.40
2018-02-14T03:38:19.663Z,-2.40
2018-02-14T03:40:45.636Z,-2.40
2018-02-14T03:43:12.316Z,-2.40
2018-02-14T03:45:38.260Z,-2.50
2018-02-14T03:48:04.331Z,-2.40
2018-02-14T03:50:30.995Z,-2.40
2018-02-14T03:52:57.685Z,-2.30
2018-02-14T03:55:23.600Z,-2.30
2018-02-14T03:57:49.550Z,-2.20
2018-02-14T04:00:16.219Z,-2.40
2018-02-14T04:02:42.325Z,-2.40
2018-02-14T04:05:08.263Z,-2.50
2018-02-14T04:07:34.189Z,-2.60
2018-02-14T04:10:00.187Z,-2.60
2018-02-14T04:12:26.116Z,-2.60
2018-02-14T04:14:52.200Z,-2.60
2018-02-14T04:17:19.492Z,-2.60
2018-02-14T04:19:45.583Z,-2.70
2018-02-14T04:22:11.537Z,-2.60
2018-02-14T04:24:37.484Z,-2.60
2018-02-14T04:27:03.457Z,-2.60
2018-02-14T04:29:30.255Z,-2.70
2018-02-14T04:31:56.225Z,-2.70
2018-02-14T04:34:22.914Z,-2.90
2018-02-14T04:36:48.836Z,-2.90
2018-02-14T04:39:14.905Z,-2.90
2018-02-14T04:41:45.168Z,-3.00
2018-02-14T04:44:11.103Z,-3.00
2018-02-14T04:46:37.071Z,-3.10
2018-02-14T04:49:03.788Z,-3.20
2018-02-14T04:51:29.735Z,-3.20
2018-02-14T04:53:56.560Z,-3.10
2018-02-14T04:56:22.503Z,-3.10
2018-02-14T04:58:48.580Z,-3.10
2018-02-14T05:01:14.511Z,-3.10
2018-02-14T05:03:40.476Z,-3.00
2018-02-14T05:06:06.424Z,-3.00
2018-02-14T05:08:32.395Z,-3.00
2018-02-14T05:10:58.329Z,-2.90
2018-02-14T05:13:25.016Z,-3.00
2018-02-14T05:15:51.123Z,-3.00
2018-02-14T05:18:17.055Z,-3.10
2018-02-14T05:20:43.041Z,-3.10
2018-02-14T05:23:09.725Z,-3.10
2018-02-14T05:25:35.698Z,-3.10
2018-02-14T05:28:02.427Z,-3.10
2018-02-14T05:30:28.500Z,-3.20
2018-02-14T05:32:54.620Z,-3.20
2018-02-14T05:35:20.584Z,-3.20
2018-02-14T05:37:46.554Z,-3.30
2018-02-14T05:40:12.496Z,-3.20
2018-02-14T05:42:38.471Z,-3.20
2018-02-14T05:45:04.407Z,-3.30
2018-02-14T05:47:30.499Z,-3.20
2018-02-14T05:49:56.485Z,-3.30
2018-02-14T05:52:22.414Z,-3.30
2018-02-14T05:54:48.383Z,-3.30
2018-02-14T05:57:15.086Z,-3.30
2018-02-14T05:59:41.088Z,-3.30
2018-02-14T06:02:07.061Z,-3.30
2018-02-14T06:04:32.998Z,-3.30
2018-02-14T06:06:59.823Z,-3.30
2018-02-14T06:09:25.778Z,-3.30
2018-02-14T06:11:51.744Z,-3.40
2018-02-14T06:14:17.667Z,-3.40
2018-02-14T06:16:43.646Z,-3.50
2018-02-14T06:19:09.591Z,-3.40
2018-02-14T06:21:35.525Z,-3.40
2018-02-14T06:24:01.614Z,-3.30
2018-02-14T06:26:27.531Z,-3.30
2018-02-14T06:28:53.507Z,-3.20
2018-02-14T06:31:19.599Z,-3.20
2018-02-14T06:33:45.703Z,-3.20
2018-02-14T06:36:11.631Z,-3.20
2018-02-14T06:38:37.621Z,-3.20
2018-02-14T06:41:04.491Z,-3.20
2018-02-14T06:43:30.460Z,-3.40
2018-02-14T06:45:56.428Z,-3.50
2018-02-14T06:48:22.372Z,-3.50
2018-02-14T06:50:48.316Z,-3.50
2018-02-14T06:53:14.411Z,-3.40
2018-02-14T06:55:40.360Z,-3.40
2018-02-14T06:58:06.321Z,-3.40
2018-02-14T07:00:33.020Z,-3.40
2018-02-14T07:02:58.984Z,-3.40
2018-02-14T07:05:25.684Z,-3.30
2018-02-14T07:07:51.775Z,-3.30
2018-02-14T07:10:17.742Z,-3.30
2018-02-14T07:12:43.766Z,-3.30
2018-02-14T07:15:09.712Z,-3.30
2018-02-14T07:17:35.747Z,-3.30
2018-02-14T07:20:01.735Z,-3.30
2018-02-14T07:22:27.671Z,-3.30
2018-02-14T07:24:53.746Z,-3.30
2018-02-14T07:27:19.688Z,-3.20
2018-02-14T07:29:45.846Z,-3.10
2018-02-14T07:32:12.552Z,-2.90
2018-02-14T07:34:38.515Z,-2.90
2018-02-14T07:37:05.251Z,-2.90
2018-02-14T07:39:31.950Z,-3.00
2018-02-14T07:41:57.939Z,-3.00
2018-02-14T07:44:23.875Z,-3.00
2018-02-14T07:46:49.988Z,-3.00
2018-02-14T07:49:15.946Z,-3.10
2018-02-14T07:51:41.951Z,-3.00
2018-02-14T07:54:07.935Z,-3.00
2018-02-14T07:56:34.663Z,-2.80
2018-02-14T07:59:00.667Z,-2.80
2018-02-14T08:01:26.729Z,-2.70
2018-02-14T08:03:52.687Z,-2.70
2018-02-14T08:06:18.808Z,-2.60
2018-02-14T08:08:44.816Z,-2.60
2018-02-14T08:11:10.803Z,-2.60
2018-02-14T08:13:36.759Z,-2.60
2018-02-14T08:16:02.864Z,-2.50
2018-02-14T08:18:28.991Z,-2.40
2018-02-14T08:20:55.197Z,-2.40
2018-02-14T08:23:21.586Z,-2.40
2018-02-14T08:25:47.618Z,-2.30
2018-02-14T08:28:14.968Z,-2.20
2018-02-14T08:30:41.113Z,-2.20
2018-02-14T08:33:07.247Z,-2.20
2018-02-14T08:35:33.232Z,-2.10
2018-02-14T08:37:59.243Z,-2.10
2018-02-14T08:40:25.258Z,-2.00
2018-02-14T08:42:52.918Z,-1.90
2018-02-14T08:45:19.492Z,-2.00
2018-02-14T08:47:45.554Z,-1.90
2018-02-14T08:50:12.645Z,-1.80
2018-02-14T08:52:40.193Z,-1.80
2018-02-14T08:55:06.459Z,-1.70
2018-02-14T08:57:32.997Z,-1.50
2018-02-14T08:59:59.848Z,-1.40
2018-02-14T09:02:26.090Z,-1.20
2018-02-14T09:04:54.424Z,-0.60
2018-02-14T09:07:20.830Z,-0.60
2018-02-14T09:09:47.980Z,-0.30
2018-02-14T09:12:14.062Z,-0.10
2018-02-14T09:14:40.703Z,0.20
2018-02-14T09:17:06.725Z,0.70
2018-02-14T09:19:33.517Z,1.70
2018-02-14T09:22:00.077Z,1.60
2018-02-14T09:24:26.421Z,2.00
2018-02-14T09:26:53.223Z,2.20
2018-02-14T09:29:20.678Z,2.50
2018-02-14T09:31:47.163Z,2.80
2018-02-14T09:34:14.519Z,3.10
2018-02-14T09:36:40.679Z,3.50
2018-02-14T09:39:08.682Z,3.70
2018-02-14T09:41:36.442Z,3.80
2018-02-14T09:44:04.714Z,3.90
2018-02-14T09:46:31.860Z,4.10
2018-02-14T09:48:59.956Z,4.20
2018-02-14T09:51:26.039Z,4.20
2018-02-14T09:53:54.641Z,4.20
2018-02-14T09:56:23.564Z,4.10
2018-02-14T09:58:51.752Z,3.60
2018-02-14T10:01:18.927Z,3.40
2018-02-14T10:03:47.458Z,3.10
2018-02-14T10:06:16.188Z,2.60
2018-02-14T10:08:44.852Z,2.30
2018-02-14T10:11:13.890Z,2.20
2018-02-14T10:13:41.275Z,2.00
2018-02-14T10:16:10.381Z,1.70
2018-02-14T10:18:38.845Z,1.50
2018-02-14T10:21:08.544Z,1.30
2018-02-14T10:23:36.173Z,1.20
2018-02-14T10:26:04.089Z,1.10
2018-02-14T10:28:33.227Z,1.20
2018-02-14T10:31:04.494Z,1.20
2018-02-14T10:33:33.385Z,1.30
2018-02-14T10:36:01.077Z,1.40
2018-02-14T10:38:33.595Z,1.50
2018-02-14T10:41:02.856Z,1.60
2018-02-14T10:43:32.324Z,1.60
2018-02-14T10:46:02.049Z,1.70
2018-02-14T10:48:29.111Z,1.80
2018-02-14T10:53:33.117Z,2.30
2018-02-14T10:56:02.076Z,2.30
2018-02-14T10:58:31.754Z,2.40
2018-02-14T11:01:00.352Z,2.40
2018-02-14T11:03:29.828Z,2.40
2018-02-14T11:05:59.087Z,2.60
2018-02-14T11:08:26.182Z,2.60
2018-02-14T11:10:53.323Z,2.70
2018-02-14T11:13:21.491Z,2.90
2018-02-14T11:15:50.426Z,2.90
2018-02-14T11:18:20.318Z,3.00
2018-02-14T11:20:48.433Z,3.10
2018-02-14T11:23:17.631Z,3.10
2018-02-14T11:25:47.180Z,3.10
2018-02-14T11:28:16.979Z,3.10
2018-02-14T11:30:45.452Z,3.20
2018-02-14T11:33:15.377Z,3.30
2018-02-14T11:35:45.368Z,3.30
2018-02-14T11:38:13.621Z,3.50
2018-02-14T11:40:40.463Z,3.60
2018-02-14T11:43:08.840Z,3.70
2018-02-14T11:45:38.612Z,3.80
2018-02-14T11:48:06.103Z,3.90
2018-02-14T11:50:33.213Z,3.80
2018-02-14T11:53:01.794Z,3.80
2018-02-14T11:55:31.514Z,3.80
2018-02-14T11:58:00.351Z,3.90
2018-02-14T12:00:27.436Z,3.90
2018-02-14T12:02:56.124Z,3.90
2018-02-14T12:05:24.304Z,3.90
2018-02-14T12:07:53.912Z,3.90
2018-02-14T12:10:22.464Z,4.00
2018-02-14T12:12:48.985Z,4.00
2018-02-14T12:15:16.994Z,4.00
2018-02-14T12:17:46.409Z,4.10
2018-02-14T12:20:13.463Z,4.20
2018-02-14T12:22:41.025Z,4.30
2018-02-14T12:25:09.695Z,4.40
2018-02-14T12:27:36.936Z,4.50
2018-02-14T12:30:06.780Z,4.70
2018-02-14T12:32:33.941Z,4.70
2018-02-14T12:35:01.200Z,4.80
2018-02-14T12:37:29.129Z,4.80
2018-02-14T12:39:56.885Z,4.90
2018-02-14T12:42:33.156Z,4.90
2018-02-14T12:45:09.160Z,4.80
2018-02-14T12:47:46.503Z,4.80
2018-02-14T12:50:26.174Z,4.90
2018-02-14T12:53:03.997Z,4.80
2018-02-14T12:55:41.643Z,5.00
2018-02-14T12:58:18.627Z,5.10
2018-02-14T13:00:57.974Z,5.40
2018-02-14T13:03:34.572Z,5.40
2018-02-14T13:06:11.482Z,5.50
2018-02-14T13:08:47.726Z,5.70
2018-02-14T13:11:16.594Z,5.80
2018-02-14T13:13:46.890Z,5.60
2018-02-14T13:16:16.064Z,5.70
2018-02-14T13:18:44.723Z,5.80
2018-02-14T13:21:15.119Z,5.70
2018-02-14T13:23:42.981Z,5.80
2018-02-14T13:26:12.314Z,5.90
2018-02-14T13:28:40.507Z,6.00
2018-02-14T13:31:10.316Z,6.10
2018-02-14T13:33:38.960Z,6.20
2018-02-14T13:36:08.584Z,6.30
2018-02-14T13:38:36.620Z,6.20
2018-02-14T13:41:04.659Z,6.20
2018-02-14T13:43:33.778Z,6.20
2018-02-14T13:46:02.167Z,6.40
2018-02-14T13:48:30.135Z,6.40
2018-02-14T13:50:59.780Z,6.40
2018-02-14T13:53:29.021Z,6.40
2018-02-14T13:55:56.905Z,6.50
2018-02-14T13:58:25.857Z,6.60
2018-02-14T14:00:56.658Z,6.80
2018-02-14T14:03:27.652Z,6.80
2018-02-14T14:05:56.574Z,6.80
2018-02-14T14:08:24.509Z,6.90
2018-02-14T14:10:55.373Z,6.90
2018-02-14T14:13:24.528Z,7.00
2018-02-14T14:15:53.774Z,7.10
2018-02-14T14:18:22.162Z,7.10
2018-02-14T14:20:54.330Z,7.00
2018-02-14T14:23:22.164Z,7.00
2018-02-14T14:25:51.024Z,6.90
2018-02-14T14:28:20.158Z,6.70
2018-02-14T14:30:49.548Z,6.70
2018-02-14T14:33:18.144Z,6.70
2018-02-14T14:35:48.301Z,6.80
2018-02-14T14:38:16.073Z,6.90
2018-02-14T14:40:43.695Z,6.90
2018-02-14T14:43:12.443Z,6.80
2018-02-14T14:45:43.623Z,6.60
2018-02-14T14:48:15.068Z,6.60
2018-02-14T14:50:44.401Z,6.60
2018-02-14T14:53:15.319Z,6.40
2018-02-14T14:55:44.747Z,6.40
2018-02-14T14:58:19.477Z,6.30
2018-02-14T15:00:51.426Z,6.30
2018-02-14T15:03:21.443Z,6.30
2018-02-14T15:05:52.188Z,6.40
2018-02-14T15:08:26.058Z,6.40
2018-02-14T15:10:55.863Z,6.30
2018-02-14T15:13:26.291Z,6.20
2018-02-14T15:15:55.613Z,6.20
2018-02-14T15:18:25.627Z,6.30
2018-02-14T15:20:58.524Z,6.50
2018-02-14T15:23:29.583Z,6.90
2018-02-14T15:26:00.175Z,6.90
2018-02-14T15:28:29.890Z,7.00
2018-02-14T15:31:03.691Z,6.90
2018-02-14T15:33:33.110Z,6.90
2018-02-14T15:36:02.341Z,6.70
2018-02-14T15:38:33.260Z,6.70
2018-02-14T15:41:07.181Z,6.70
2018-02-14T15:43:40.550Z,6.40
2018-02-14T15:46:12.274Z,6.30
2018-02-14T15:48:44.128Z,6.30
2018-02-14T15:53:51.310Z,6.00
2018-02-14T15:56:22.774Z,5.70
2018-02-14T15:58:56.939Z,5.70
2018-02-14T16:01:29.781Z,5.60
2018-02-14T16:04:04.885Z,5.50
2018-02-14T16:06:36.159Z,5.40
2018-02-14T16:09:08.851Z,5.20
2018-02-14T16:11:39.605Z,5.00
2018-02-14T16:14:09.546Z,5.00
2018-02-14T16:16:41.609Z,5.00
2018-02-14T16:19:11.857Z,5.00
2018-02-14T16:21:42.457Z,5.00
2018-02-14T16:24:12.871Z,4.90
2018-02-14T16:26:43.720Z,4.90
2018-02-14T16:29:14.749Z,4.90
2018-02-14T16:31:45.875Z,4.70
2018-02-14T16:34:19.588Z,4.70
2018-02-14T16:36:50.410Z,4.40
2018-02-14T16:39:19.736Z,4.30
2018-02-14T16:44:24.056Z,4.30
2018-02-14T16:46:55.726Z,4.30
2018-02-14T16:49:27.531Z,4.20
2018-02-14T16:51:58.185Z,4.10
2018-02-14T16:54:28.523Z,4.00
2018-02-14T16:57:01.889Z,4.00
2018-02-14T16:59:32.197Z,4.00
2018-02-14T17:02:05.001Z,4.00
2018-02-14T17:04:35.112Z,4.00
2018-02-14T17:07:06.936Z,3.80
2018-02-14T17:09:38.401Z,3.80
2018-02-14T17:12:09.385Z,3.70
2018-02-14T17:14:40.067Z,3.70
2018-02-14T17:17:15.294Z,3.80
2018-02-14T17:19:48.453Z,3.70
2018-02-14T17:22:25.040Z,3.70
2018-02-14T17:24:58.359Z,3.60
2018-02-14T17:30:07.176Z,3.50
2018-02-14T17:37:59.354Z,3.20
2018-02-14T17:40:32.970Z,3.10
2018-02-14T17:45:47.039Z,3.00
2018-02-14T17:48:19.805Z,3.00
2018-02-14T17:53:27.679Z,2.90
2018-02-14T18:50:24.093Z,1.60
2018-02-14T19:00:57.935Z,1.50
2018-02-14T19:06:34.895Z,1.40
2018-02-14T19:21:04.535Z,1.30
2018-02-14T19:23:34.370Z,1.30
2018-02-14T19:36:46.467Z,1.10
2018-02-14T19:39:17.500Z,1.10
2018-02-14T19:52:36.582Z,1.00
2018-02-14T20:04:21.880Z,0.90
2018-02-14T20:20:06.369Z,0.80
2018-02-14T20:22:37.484Z,0.70
2018-02-14T20:25:07.950Z,0.70
2018-02-14T20:27:37.974Z,0.60
2018-02-14T20:30:07.342Z,0.60
2018-02-14T20:32:39.019Z,0.60
2018-02-14T20:35:07.758Z,0.60
2018-02-14T20:37:37.749Z,0.50
2018-02-14T20:40:10.384Z,0.60
2018-02-14T20:47:50.066Z,0.60
2018-02-14T20:50:20.271Z,0.50
2018-02-14T20:52:48.732Z,0.50
2018-02-14T20:55:17.037Z,0.50
2018-02-14T20:57:44.414Z,0.50
2018-02-14T21:00:10.416Z,0.40
2018-02-14T21:02:37.864Z,0.50
2018-02-14T21:05:05.172Z,0.50
2018-02-14T21:07:35.030Z,0.40
2018-02-14T21:10:04.623Z,0.30
2018-02-14T21:12:33.075Z,0.30
2018-02-14T21:15:01.936Z,0.30
2018-02-14T21:17:29.227Z,0.30
2018-02-14T21:19:58.119Z,0.30
2018-02-14T21:22:24.340Z,0.30
2018-02-14T21:24:50.315Z,0.40
2018-02-14T21:27:18.345Z,0.30
2018-02-14T21:29:46.026Z,0.40
2018-02-14T21:32:12.516Z,0.30
2018-02-14T21:34:38.539Z,0.30
2018-02-14T21:37:04.715Z,0.30
2018-02-14T21:39:32.139Z,0.40
2018-02-14T21:41:58.870Z,0.40
2018-02-14T21:44:24.858Z,0.40
2018-02-14T21:46:50.849Z,0.30
2018-02-14T21:49:17.839Z,0.30
2018-02-14T21:51:43.840Z,0.30
2018-02-14T21:54:09.976Z,0.30
2018-02-14T21:56:35.979Z,0.20
2018-02-14T21:59:02.017Z,0.20
2018-02-14T22:01:28.038Z,0.20
2018-02-14T22:03:54.793Z,0.10
2018-02-14T22:06:20.835Z,0.10
2018-02-14T22:08:46.833Z,0.10
2018-02-14T22:11:12.923Z,0.10
2018-02-14T22:13:38.872Z,0.10
2018-02-14T22:16:04.927Z,0.00
2018-02-14T22:18:31.685Z,-0.10
2018-02-14T22:20:57.763Z,-0.10
2018-02-14T22:23:23.756Z,-0.10
2018-02-14T22:25:49.769Z,-0.10
2018-02-14T22:28:16.621Z,-0.20
2018-02-14T22:30:42.582Z,-0.20
2018-02-14T22:33:09.005Z,-0.20
2018-02-14T22:35:35.027Z,-0.20
2018-02-14T22:38:01.168Z,-0.30
2018-02-14T22:40:27.135Z,-0.20
2018-02-14T22:42:53.972Z,-0.20
2018-02-14T22:45:19.975Z,-0.30
2018-02-14T22:47:46.012Z,-0.30
2018-02-14T22:50:12.008Z,-0.30
2018-02-14T22:52:37.981Z,-0.30
2018-02-14T22:55:04.732Z,-0.30
2018-02-14T22:57:30.708Z,-0.30
2018-02-14T22:59:57.075Z,-0.20
2018-02-14T23:02:24.285Z,-0.30
2018-02-14T23:04:50.295Z,-0.30
2018-02-14T23:07:16.268Z,-0.30
2018-02-14T23:09:42.967Z,-0.30
2018-02-14T23:12:09.009Z,-0.30
2018-02-14T23:14:34.993Z,-0.40
2018-02-14T23:17:01.153Z,-0.40
2018-02-14T23:19:27.108Z,-0.40
2018-02-14T23:21:53.171Z,-0.40
2018-02-14T23:24:19.136Z,-0.40
2018-02-14T23:26:45.112Z,-0.40
2018-02-14T23:29:11.076Z,-0.30
2018-02-14T23:31:37.035Z,-0.30
2018-02-14T23:34:03.231Z,-0.40
2018-02-14T23:36:29.935Z,-0.30
2018-02-14T23:38:56.066Z,-0.30
2018-02-14T23:41:22.054Z,-0.30
2018-02-14T23:43:48.053Z,-0.20
2018-02-14T23:46:14.740Z,-0.20
2018-02-14T23:48:40.712Z,-0.20
2018-02-14T23:51:07.567Z,-0.20
2018-02-14T23:53:34.309Z,-0.20
2018-02-14T23:56:00.309Z,-0.20
2018-02-14T23:58:27.013Z,-0.10
